Houlton, ME

6:11 AM EDT on August 01, 2014 (GMT -0400)
Northern Maine Regional At Presque Isle (KPQI) Elev 479 ft | 46.69 °N, 68.04 °W | Change Station

Current weather conditions updated 16 minutes ago

Clear
Clear
54 °F
Feels Like 54 °F
N
0
Wind Variable Wind from North

Today is forecast to be Warmer than yesterday.

Today
High -- | Low -- °F
--% Chance of Precip.
Yesterday
High -- | Low -- °F
Precip. -- in
5:13 AM 8:01 PM
Waxing Crescent, 25% visible
Pressure 30.17 in
Visibility 10.0 miles
Clouds Clear
Dew Point 48 °F
Humidity 82%
Rainfall 0.00 in
Snow Depth Not available.
UV 0 out of 12
Pollen 4.80 out of 12
PM2.5 Good
Flu Activity Not available.
METAR KPQI 010955Z AUTO 00000KT 10SM CLR 12/09 A3017 RMK AO1

More Conditions Fewer Conditions

Pressure 30.17 in
Visibility 10.0 miles
Clouds Clear
Dew Point 48 °F
Humidity 82%
Rainfall 0.00 in
Snow Depth Not available.
UV 0 out of 12
Pollen 4.80 out of 12
PM2.5 Good
Flu Activity Not available.
METAR KPQI 010955Z AUTO 00000KT 10SM CLR 12/09 A3017 RMK AO1

More Conditions Fewer Conditions

10-Day Weather Forecast

Almanac

Astronomy

Aug. 01, 2014 Rise Set
Actual Time 5:13 AM EDT 8:01 PM EDT
Civil Twilight 4:38 AM EDT 8:35 PM EDT
Nautical Twilight 3:54 AM EDT 9:19 PM EDT
Astronomical Twilight 3:02 AM EDT 10:11 PM EDT
Moon 10:54 AM EDT 10:21 PM EDT
Length of Visible Light 15h 57m
Length of Day
14h 47m
Tomorrow will be 2m 32s shorter.
Waxing Crescent, 25% of the Moon is Illuminated
Today
Waxing Crescent
Aug 3
First Quarter
Aug 10
Full
Aug 17
Last Quarter
Aug 25
New

Today's Extremes

State Highs State Lows

Community

WunderPhotos

Upload Photos

1,739,533 photos uploaded!

Nearby

Air Quality

  Air Quality AQ Index Pollutant
Yesterday Good
PM2.5
Yesterday Good
OZONE
Current Good
PM2.5
Friday Moderate
PM2.5
Friday Good
OZONE
Saturday Good
OZONE
Saturday Good
PM2.5

Snow Depth

Station Depth Elevation
No new snow has been reported.

Earthquake Activity

City Distance Mag. Time & Date
No recent earthquake activity has been reported nearby.
Minimum magnitude displayed is 2.5.

Coastal Water Temperatures

Place Temperature
No Stations Reporting

Nearby Weather Stations

Station Location Temp. Dew Point Humidity Wind Precip. Elev Updated Type
Micmac Environmental, Littleton, ME 58.9 °F 58 °F 98% SSW  at  1.0 mph 0.00 in / hr 574 ft 6:11 AM EDT Rapid Fire
Grafton, Woodstock 59.5 °F 57 °F 90% SSW  at  2.0 mph 0.00 in / hr 500 ft 7:11 AM ADT Rapid Fire
West Road, Monticello, ME 55.1 °F 54 °F 97% SSW  at  2.0 mph 0.00 in / hr 656 ft 6:11 AM EDT Rapid Fire
NEPP Knowles Corner, ME, Smyrna Mills, ME 57 °F - - North  at  - 0.00 in / hr 1100 ft 4:45 AM EDT MADIS

Show More Stations Show Fewer Stations